WEERSPREUK VAN DE DAG: Houden de kraaien voor Allerheiligen al school, zorg dan voor hout en kool.
Het weer levert geen direct gevaar op.    Er zijn geen waarschuwingen afgegeven.


Onweer radar Meer informatie blitzortung!


Regen radar Meer informatie rain snow radar


Bekijk deze sites ook eens:

FPL Automotive (TIP)

Autostekkers.nl (TIP)

Over Luyksgestel

BOL.com

Weerstation Noordbergum

Inktweb

Drone kopen?

Weerstation Hapert

Parfumswinkel TIP

Weerstation Hoogeloon

Dronepilots Droneforum

Weerstation Son&Breugel

Weerstation Castaert

Kamera Express

Smartphonehoesjes

Weerstation Tilburg Reeshof

Weerstation Scheulder

Samostour webcams

Weerverwachting Samos

Samos actueel

Weerwoord (forum)

Griekenlandforum

Vakantie naar Samos

Zomerzon

Alpen weerman

Wintersport weerman

Sneeuwhoogte.nl

Canon

Webcams Gargellen

Lampen koopjeshoek



METAR rapporten vliegvelden

   
EBAW - Antwerp
Gewijzigd: 21-10-2018 22:20
Licht bewolkt  
Licht bewolkt  
   Wind: Kalm
Wind: Kalm
Temperatuur: 10°C
Dauwpunt: 8°C
Vochtigheid: 88%
Barometer: 1027 hPa
Bewolking: Licht bewolkt
Zicht: meer dan 10 km
Bewolking: Licht bewolkt 4600 ft
EBAW 212020Z 00000KT 9999 FEW046 10/08 Q1027 NOSIG
EBLG - Liège
Gewijzigd: 21-10-2018 22:20
Helder  
Helder  
   Wind: varieert 3.7 km/h
Wind: varieert 3.7 km/h
Temperatuur: 12°C
Dauwpunt: 4°C
Vochtigheid: 58%
Barometer: 1027 hPa
Zicht: meer dan 10 km
Bewolking: Helder
EBLG 212020Z VRB02KT CAVOK 12/04 Q1027 NOSIG
EBCV - Mons/Bergen
Gewijzigd: 21-10-2018 22:25
Licht bewolkt  
Licht bewolkt  
   Wind: varieert 1.9 km/h
Wind: varieert 1.9 km/h
Temperatuur: 9°C
Dauwpunt: 7°C
Vochtigheid: 87%
Barometer: 1027 hPa
Bewolking: Licht bewolkt
Zicht: 7 km
Bewolking: Licht bewolkt 6200 ft
EBCV 212025Z AUTO VRB01KT 7000 FEW062/// 09/07 Q1027 WHT
EHBK - Maastricht
Gewijzigd: 21-10-2018 22:25
Gedeeltelijk bewolkt  
Gedeeltelijk bewolkt  
   Wind: Kalm
Wind: Kalm
Temperatuur: 10°C
Dauwpunt: 6°C
Vochtigheid: 76%
Barometer: 1026 hPa
Bewolking: Gedeeltelijk bewolkt
Zicht: meer dan 10 km
Bewolking: Gedeeltelijk bewolkt
EHBK 212025Z AUTO 00000KT 9999 NSC 10/06 Q1026 NOSIG
ELLX - Luxemburg
Gewijzigd: 21-10-2018 22:20
Helder  
Helder  
   Wind: NNO 13 km/h
Wind: NNO 13 km/h
Temperatuur: 10°C
Voelt als: 8°C
Dauwpunt: 4°C
Vochtigheid: 67%
Barometer: 1026 hPa
Zicht: meer dan 10 km
Bewolking: Helder
ELLX 212020Z 03007KT CAVOK 10/04 Q1026 NOSIG
EBOS - Oostende
Gewijzigd: 21-10-2018 22:20
Gedeeltelijk bewolkt  
Gedeeltelijk bewolkt  
   Wind: Westen 3.7 km/h
Wind: Westen 3.7 km/h
Temperatuur: 9°C
Dauwpunt: 7°C
Vochtigheid: 87%
Barometer: 1027 hPa
Bewolking: Gedeeltelijk bewolkt
Zicht: 6 km
Bewolking: Gedeeltelijk bewolkt
EBOS 212020Z 27002KT 6000 NSC 09/07 Q1027 TEMPO 3500 BR

Script ontwikkeld door  Saratoga-weather.org Aangepast voor de template door  Weerstation Leuven

U vindt ons ook hier:

Het Weer Aktueel

UK Metoffice

European Weather Network

Weather Underground

AWEKAS